createdAt,value
2018-05-15T00:00:41.747Z,98791.08
2018-05-15T00:03:15.284Z,98789.80
2018-05-15T00:05:48.930Z,98792.78
2018-05-15T00:08:22.480Z,98789.03
2018-05-15T00:10:56.250Z,98796.76
2018-05-15T00:13:29.964Z,98788.87
2018-05-15T00:16:03.520Z,98797.73
2018-05-15T00:18:37.135Z,98796.20
2018-05-15T00:21:10.795Z,98800.86
2018-05-15T00:23:44.668Z,98809.25
2018-05-15T00:26:18.351Z,98808.94
2018-05-15T00:28:52.049Z,98808.25
2018-05-15T00:31:25.855Z,98806.20
2018-05-15T00:33:59.540Z,98819.20
2018-05-15T00:36:33.320Z,98811.45
2018-05-15T00:39:06.885Z,98819.09
2018-05-15T00:41:40.673Z,98820.09
2018-05-15T00:44:14.537Z,98816.05
2018-05-15T00:46:48.046Z,98820.27
2018-05-15T00:49:21.612Z,98820.72
2018-05-15T00:51:55.340Z,98828.13
2018-05-15T00:54:28.831Z,98822.89
2018-05-15T00:57:02.447Z,98822.09
2018-05-15T00:59:36.012Z,98823.34
2018-05-15T01:02:09.594Z,98828.17
2018-05-15T01:04:43.140Z,98826.31
2018-05-15T01:07:16.924Z,98831.48
2018-05-15T01:09:50.584Z,98828.29
2018-05-15T01:12:24.428Z,98826.75
2018-05-15T01:14:58.116Z,98828.91
2018-05-15T01:17:31.765Z,98830.11
2018-05-15T01:20:05.435Z,98838.20
2018-05-15T01:22:39.189Z,98835.68
2018-05-15T01:25:12.801Z,98840.86
2018-05-15T01:27:46.473Z,98833.98
2018-05-15T01:30:20.168Z,98827.23
2018-05-15T01:32:53.722Z,98827.61
2018-05-15T01:35:27.724Z,98826.19
2018-05-15T01:38:02.077Z,98823.55
2018-05-15T01:40:35.774Z,98825.63
2018-05-15T01:43:09.291Z,98824.50
2018-05-15T01:45:43.163Z,98822.27
2018-05-15T01:48:16.922Z,98823.94
2018-05-15T01:50:50.492Z,98821.14
2018-05-15T01:53:24.259Z,98826.02
2018-05-15T01:55:57.980Z,98823.02
2018-05-15T01:58:31.670Z,98817.36
2018-05-15T02:01:05.261Z,98808.25
2018-05-15T02:03:38.895Z,98818.69
2018-05-15T02:06:12.464Z,98816.69
2018-05-15T02:08:46.308Z,98819.42
2018-05-15T02:11:20.068Z,98819.02
2018-05-15T02:13:53.748Z,98819.66
2018-05-15T02:16:27.284Z,98817.49
2018-05-15T02:19:00.908Z,98811.04
2018-05-15T02:21:34.664Z,98819.44
2018-05-15T02:24:08.228Z,98821.88
2018-05-15T02:26:42.012Z,98820.11
2018-05-15T02:29:15.575Z,98821.09
2018-05-15T02:31:49.243Z,98823.64
2018-05-15T02:34:22.814Z,98826.64
2018-05-15T02:36:56.512Z,98833.13
2018-05-15T02:39:30.089Z,98827.73
2018-05-15T02:42:03.619Z,98832.59
2018-05-15T02:44:37.280Z,98827.14
2018-05-15T02:47:10.815Z,98827.23
2018-05-15T02:49:44.655Z,98832.66
2018-05-15T02:52:18.360Z,98822.14
2018-05-15T02:54:51.937Z,98824.88
2018-05-15T02:57:25.503Z,98820.84
2018-05-15T02:59:59.162Z,98827.52
2018-05-15T03:02:32.975Z,98826.13
2018-05-15T03:05:06.741Z,98824.63
2018-05-15T03:07:40.285Z,98828.52
2018-05-15T03:10:14.020Z,98829.56
2018-05-15T03:12:47.777Z,98832.66
2018-05-15T03:15:21.398Z,98835.84
2018-05-15T03:17:55.021Z,98835.91
2018-05-15T03:20:28.591Z,98833.32
2018-05-15T03:23:02.215Z,98832.78
2018-05-15T03:25:36.365Z,98827.95
2018-05-15T03:28:10.413Z,98832.31
2018-05-15T03:30:44.105Z,98832.19
2018-05-15T03:33:17.622Z,98831.37
2018-05-15T03:35:51.160Z,98835.03
2018-05-15T03:38:24.763Z,98836.92
2018-05-15T03:40:58.330Z,98839.45
2018-05-15T03:43:32.092Z,98845.31
2018-05-15T03:46:05.626Z,98840.16
2018-05-15T03:48:39.343Z,98843.25
2018-05-15T03:51:13.122Z,98847.58
2018-05-15T03:53:46.940Z,98847.80
2018-05-15T03:56:20.497Z,98861.78
2018-05-15T03:58:54.149Z,98862.97
2018-05-15T04:01:39.810Z,98864.97
2018-05-15T04:04:25.423Z,98860.08
2018-05-15T04:07:11.025Z,98849.63
2018-05-15T04:09:45.563Z,98850.78
2018-05-15T04:12:20.365Z,98853.19
2018-05-15T04:14:54.151Z,98859.54
2018-05-15T04:17:27.689Z,98862.92
2018-05-15T04:20:01.470Z,98859.77
2018-05-15T04:22:35.052Z,98857.34
2018-05-15T04:25:08.819Z,98855.98
2018-05-15T04:27:42.540Z,98853.22
2018-05-15T04:30:16.291Z,98860.11
2018-05-15T04:32:49.823Z,98851.00
2018-05-15T04:35:23.707Z,98859.16
2018-05-15T04:37:57.390Z,98858.73
2018-05-15T04:40:31.223Z,98857.09
2018-05-15T04:43:04.876Z,98857.59
2018-05-15T04:45:38.623Z,98859.06
2018-05-15T04:48:12.286Z,98863.16
2018-05-15T04:50:45.978Z,98871.01
2018-05-15T04:53:19.607Z,98867.91
2018-05-15T04:55:53.432Z,98878.78
2018-05-15T04:58:26.986Z,98870.39
2018-05-15T05:01:00.721Z,98872.52
2018-05-15T05:03:34.380Z,98872.64
2018-05-15T05:06:08.085Z,98871.18
2018-05-15T05:08:41.688Z,98877.58
2018-05-15T05:11:15.264Z,98875.48
2018-05-15T05:13:48.908Z,98877.17
2018-05-15T05:16:22.664Z,98871.39
2018-05-15T05:18:56.191Z,98875.98
2018-05-15T05:21:29.818Z,98875.41
2018-05-15T05:24:03.398Z,98885.84
2018-05-15T05:26:36.960Z,98885.91
2018-05-15T05:29:10.752Z,98888.41
2018-05-15T05:31:44.356Z,98889.94
2018-05-15T05:34:18.006Z,98888.28
2018-05-15T05:36:51.616Z,98889.20
2018-05-15T05:39:25.175Z,98896.13
2018-05-15T05:41:58.710Z,98898.47
2018-05-15T05:44:32.242Z,98907.59
2018-05-15T05:47:05.970Z,98915.75
2018-05-15T05:49:39.432Z,98917.27
2018-05-15T05:52:13.128Z,98907.91
2018-05-15T05:54:46.673Z,98916.42
2018-05-15T05:57:20.425Z,98919.18
2018-05-15T05:59:53.959Z,98924.31
2018-05-15T06:02:27.523Z,98923.31
2018-05-15T06:05:01.192Z,98927.73
2018-05-15T06:07:34.968Z,98931.27
2018-05-15T06:10:08.656Z,98929.20
2018-05-15T06:12:42.440Z,98929.45
2018-05-15T06:15:15.969Z,98937.98
2018-05-15T06:17:49.743Z,98937.09
2018-05-15T06:20:23.520Z,98939.25
2018-05-15T06:22:57.142Z,98941.63
2018-05-15T06:25:30.719Z,98942.03
2018-05-15T06:28:04.373Z,98941.58
2018-05-15T06:30:37.926Z,98942.05
2018-05-15T06:33:11.612Z,98944.07
2018-05-15T06:35:45.284Z,98939.28
2018-05-15T06:38:18.832Z,98945.67
2018-05-15T06:40:52.439Z,98939.08
2018-05-15T06:43:26.073Z,98939.55
2018-05-15T06:45:59.579Z,98941.11
2018-05-15T06:48:33.363Z,98944.97
2018-05-15T06:51:06.953Z,98938.50
2018-05-15T06:53:40.699Z,98941.11
2018-05-15T06:56:14.188Z,98944.31
2018-05-15T06:58:47.792Z,98938.12
2018-05-15T07:01:21.415Z,98946.05
2018-05-15T07:03:55.128Z,98954.58
2018-05-15T07:06:28.669Z,98957.28
2018-05-15T07:09:02.324Z,98959.34
2018-05-15T07:11:35.840Z,98948.80
2018-05-15T07:14:09.374Z,98951.88
2018-05-15T07:16:43.014Z,98946.17
2018-05-15T07:19:16.711Z,98948.58
2018-05-15T07:21:50.371Z,98944.64
2018-05-15T07:24:23.862Z,98950.02
2018-05-15T07:26:57.432Z,98957.94
2018-05-15T07:29:31.011Z,98955.66
2018-05-15T07:32:04.569Z,98957.34
2018-05-15T07:34:38.296Z,98953.34
2018-05-15T07:40:10.941Z,98954.89
2018-05-15T07:42:44.527Z,98961.98
2018-05-15T07:45:18.012Z,98956.05
2018-05-15T07:47:51.706Z,98952.36
2018-05-15T07:50:25.347Z,98950.28
2018-05-15T07:52:59.291Z,98954.31
2018-05-15T07:55:32.835Z,98948.14
2018-05-15T07:58:06.344Z,98958.13
2018-05-15T08:00:39.871Z,98968.99
2018-05-15T08:03:13.454Z,98963.87
2018-05-15T08:05:47.061Z,98970.30
2018-05-15T08:08:20.631Z,98965.37
2018-05-15T08:10:54.231Z,98969.69
2018-05-15T08:13:28.040Z,98969.05
2018-05-15T08:16:01.805Z,98965.48
2018-05-15T08:18:35.332Z,98974.94
2018-05-15T08:21:08.941Z,98975.28
2018-05-15T08:23:42.556Z,98964.50
2018-05-15T08:26:16.160Z,98969.18
2018-05-15T08:28:49.884Z,98970.38
2018-05-15T08:31:23.419Z,98976.31
2018-05-15T08:33:57.174Z,98974.64
2018-05-15T08:36:30.780Z,98976.22
2018-05-15T08:39:04.345Z,98982.77
2018-05-15T08:41:38.012Z,98975.77
2018-05-15T08:44:11.770Z,98986.91
2018-05-15T08:46:45.369Z,98979.45
2018-05-15T08:49:19.129Z,98980.67
2018-05-15T08:51:52.754Z,98982.38
2018-05-15T08:54:26.397Z,98980.84
2018-05-15T08:57:02.064Z,98975.16
2018-05-15T08:59:35.916Z,98980.52
2018-05-15T09:02:09.619Z,98972.17
2018-05-15T09:04:43.233Z,98977.70
2018-05-15T09:07:16.903Z,98970.77
2018-05-15T09:09:50.469Z,98974.20
2018-05-15T09:12:23.993Z,98971.20
2018-05-15T09:14:57.786Z,98971.25
2018-05-15T09:17:31.526Z,98962.81
2018-05-15T09:20:05.118Z,98971.48
2018-05-15T09:22:39.694Z,98966.11
2018-05-15T09:25:13.545Z,98975.70
2018-05-15T09:27:47.225Z,98974.62
2018-05-15T09:30:20.841Z,98964.80
2018-05-15T09:32:54.561Z,98965.90
2018-05-15T09:35:28.273Z,98972.04
2018-05-15T09:38:01.993Z,98974.99
2018-05-15T09:40:36.396Z,98974.22
2018-05-15T09:43:10.077Z,98973.47
2018-05-15T09:45:43.866Z,98969.92
2018-05-15T09:48:17.604Z,98971.48
2018-05-15T09:50:51.412Z,98968.78
2018-05-15T09:53:25.075Z,98974.52
2018-05-15T09:55:58.755Z,98966.28
2018-05-15T09:58:32.532Z,98969.07
2018-05-15T10:01:06.319Z,98967.27
2018-05-15T10:03:40.115Z,98977.92
2018-05-15T10:06:13.929Z,98975.43
2018-05-15T10:08:47.560Z,98967.82
2018-05-15T10:11:21.313Z,98970.28
2018-05-15T10:13:55.494Z,98971.81
2018-05-15T10:16:29.094Z,98960.61
2018-05-15T10:19:02.932Z,98967.27
2018-05-15T10:21:36.394Z,98970.16
2018-05-15T10:24:10.150Z,98967.30
2018-05-15T10:26:43.861Z,98959.61
2018-05-15T10:29:17.756Z,98973.55
2018-05-15T10:31:51.337Z,98959.25
2018-05-15T10:34:24.897Z,98964.77
2018-05-15T10:36:58.560Z,98960.31
2018-05-15T10:39:32.314Z,98966.34
2018-05-15T10:42:06.147Z,98955.69
2018-05-15T10:44:39.878Z,98962.73
2018-05-15T10:47:13.457Z,98959.01
2018-05-15T10:49:47.194Z,98955.69
2018-05-15T10:52:20.900Z,98953.03
2018-05-15T10:54:54.475Z,98948.32
2018-05-15T10:57:28.152Z,98953.59
2018-05-15T11:00:01.731Z,98951.61
2018-05-15T11:02:35.382Z,98957.09
2018-05-15T11:05:09.103Z,98952.03
2018-05-15T11:07:42.644Z,98946.25
2018-05-15T11:10:16.293Z,98942.17
2018-05-15T11:12:50.147Z,98947.49
2018-05-15T11:15:23.665Z,98951.61
2018-05-15T11:17:57.392Z,98949.15
2018-05-15T11:20:42.861Z,98957.97
2018-05-15T11:23:28.461Z,98962.34
2018-05-15T11:26:02.198Z,98947.56
2018-05-15T11:28:35.871Z,98947.24
2018-05-15T11:31:09.628Z,98958.33
2018-05-15T11:33:43.330Z,98953.84
2018-05-15T11:36:16.989Z,98955.26
2018-05-15T11:38:50.688Z,98962.73
2018-05-15T11:41:24.453Z,98964.72
2018-05-15T11:43:58.219Z,98961.66
2018-05-15T11:46:31.949Z,98956.19
2018-05-15T11:49:06.467Z,98959.07
2018-05-15T11:51:39.690Z,98942.31
2018-05-15T11:54:12.903Z,98942.92
2018-05-15T11:56:46.629Z,98949.13
2018-05-15T11:59:20.308Z,98939.63
2018-05-15T12:01:53.936Z,98953.30
2018-05-15T12:04:27.564Z,98945.06
2018-05-15T12:07:01.161Z,98946.06
2018-05-15T12:09:34.769Z,98941.34
2018-05-15T12:12:08.320Z,98935.79
2018-05-15T12:14:41.784Z,98945.67
2018-05-15T12:17:15.348Z,98952.83
2018-05-15T12:19:48.928Z,98945.88
2018-05-15T12:22:22.649Z,98945.67
2018-05-15T12:24:56.408Z,98942.51
2018-05-15T12:27:30.140Z,98940.46
2018-05-15T12:30:03.623Z,98946.07
2018-05-15T12:32:37.397Z,98931.22
2018-05-15T12:35:10.932Z,98937.97
2018-05-15T12:37:44.579Z,98940.92
2018-05-15T12:40:18.209Z,98944.30
2018-05-15T12:42:51.946Z,98938.94
2018-05-15T12:45:25.537Z,98943.21
2018-05-15T12:47:59.290Z,98937.69
2018-05-15T12:50:32.905Z,98937.16
2018-05-15T12:53:06.705Z,98939.53
2018-05-15T12:55:40.379Z,98939.93
2018-05-15T12:58:14.072Z,98945.67
2018-05-15T13:00:47.549Z,98944.90
2018-05-15T13:03:21.167Z,98946.86
2018-05-15T13:05:54.986Z,98938.77
2018-05-15T13:08:28.688Z,98936.09
2018-05-15T13:11:02.476Z,98937.95
2018-05-15T13:13:36.156Z,98931.41
2018-05-15T13:16:09.803Z,98931.61
2018-05-15T13:18:43.434Z,98935.58
2018-05-15T13:21:17.145Z,98931.23
2018-05-15T13:23:50.702Z,98936.95
2018-05-15T13:26:24.271Z,98930.35
2018-05-15T13:28:57.828Z,98928.10
2018-05-15T13:31:31.360Z,98917.09
2018-05-15T13:34:05.008Z,98913.98
2018-05-15T13:36:38.788Z,98919.92
2018-05-15T13:39:12.475Z,98917.73
2018-05-15T13:41:46.200Z,98917.94
2018-05-15T13:44:19.726Z,98918.08
2018-05-15T13:46:53.277Z,98910.09
2018-05-15T13:49:26.904Z,98907.53
2018-05-15T13:52:00.628Z,98912.54
2018-05-15T13:54:34.168Z,98898.92
2018-05-15T13:57:07.948Z,98913.98
2018-05-15T13:59:41.550Z,98906.83
2018-05-15T14:02:15.133Z,98906.20
2018-05-15T14:04:48.652Z,98898.94
2018-05-15T14:07:22.556Z,98892.59
2018-05-15T14:09:56.085Z,98888.34
2018-05-15T14:12:29.641Z,98892.73
2018-05-15T14:15:03.195Z,98884.76
2018-05-15T14:17:36.924Z,98884.72
2018-05-15T14:20:10.512Z,98881.72
2018-05-15T14:22:44.177Z,98894.63
2018-05-15T14:25:17.788Z,98893.91
2018-05-15T14:27:51.448Z,98887.83
2018-05-15T14:30:25.007Z,98880.08
2018-05-15T14:32:58.698Z,98874.80
2018-05-15T14:35:32.233Z,98873.80
2018-05-15T14:38:05.837Z,98868.08
2018-05-15T14:40:39.345Z,98875.19
2018-05-15T14:43:20.063Z,98870.66
2018-05-15T14:45:53.702Z,98874.98
2018-05-15T14:48:27.237Z,98877.41
2018-05-15T14:54:08.698Z,98870.45
2018-05-15T14:56:42.220Z,98876.98
2018-05-15T14:59:15.948Z,98881.11
2018-05-15T15:01:49.785Z,98872.27
2018-05-15T15:04:23.393Z,98869.85
2018-05-15T15:06:57.132Z,98862.47
2018-05-15T15:09:30.840Z,98866.30
2018-05-15T15:12:04.588Z,98866.69
2018-05-15T15:14:38.402Z,98867.16
2018-05-15T15:17:11.940Z,98861.08
2018-05-15T15:19:45.485Z,98867.73
2018-05-15T15:22:19.020Z,98858.36
2018-05-15T15:24:52.832Z,98858.44
2018-05-15T15:27:26.614Z,98864.02
2018-05-15T15:30:00.393Z,98860.04
2018-05-15T15:32:33.937Z,98860.20
2018-05-15T15:35:07.622Z,98857.30
2018-05-15T15:37:41.365Z,98860.03
2018-05-15T15:40:15.153Z,98860.05
2018-05-15T15:42:48.839Z,98854.91
2018-05-15T15:45:22.684Z,98852.54
2018-05-15T15:47:56.354Z,98860.50
2018-05-15T15:50:30.000Z,98854.97
2018-05-15T15:53:03.617Z,98855.13
2018-05-15T15:55:37.143Z,98852.34
2018-05-15T15:58:10.732Z,98851.75
2018-05-15T16:00:44.427Z,98850.17
2018-05-15T16:03:17.988Z,98852.54
2018-05-15T16:05:51.711Z,98849.58
2018-05-15T16:08:25.320Z,98851.92
2018-05-15T16:10:58.935Z,98851.91
2018-05-15T16:13:32.477Z,98854.29
2018-05-15T16:16:06.287Z,98846.71
2018-05-15T16:18:39.868Z,98841.77
2018-05-15T16:21:13.700Z,98843.74
2018-05-15T16:23:47.237Z,98845.41
2018-05-15T16:26:20.803Z,98851.34
2018-05-15T16:28:54.468Z,98848.38
2018-05-15T16:31:28.013Z,98836.95
2018-05-15T16:34:01.592Z,98851.61
2018-05-15T16:36:35.084Z,98848.55
2018-05-15T16:39:08.924Z,98847.93
2018-05-15T16:41:42.703Z,98841.20
2018-05-15T16:44:16.422Z,98842.75
2018-05-15T16:46:50.019Z,98849.73
2018-05-15T16:49:23.836Z,98846.81
2018-05-15T16:51:57.473Z,98833.53
2018-05-15T16:54:31.213Z,98844.64
2018-05-15T16:57:04.816Z,98843.81
2018-05-15T16:59:38.546Z,98843.39
2018-05-15T17:02:12.189Z,98845.77
2018-05-15T17:04:45.972Z,98844.39
2018-05-15T17:07:19.550Z,98843.97
2018-05-15T17:09:53.156Z,98840.41
2018-05-15T17:12:26.762Z,98843.66
2018-05-15T17:15:00.504Z,98843.81
2018-05-15T17:17:34.096Z,98841.46
2018-05-15T17:20:07.832Z,98845.22
2018-05-15T17:22:41.399Z,98842.23
2018-05-15T17:25:15.157Z,98844.53
2018-05-15T17:27:48.770Z,98839.53
2018-05-15T17:30:22.350Z,98839.78
2018-05-15T17:32:55.950Z,98838.61
2018-05-15T17:35:29.520Z,98837.81
2018-05-15T17:38:03.155Z,98832.70
2018-05-15T17:40:36.739Z,98830.17
2018-05-15T17:43:10.507Z,98826.75
2018-05-15T17:45:44.104Z,98836.15
2018-05-15T17:48:17.848Z,98834.66
2018-05-15T17:50:51.500Z,98841.73
2018-05-15T17:53:25.067Z,98828.31
2018-05-15T17:55:58.755Z,98843.04
2018-05-15T17:58:32.306Z,98845.66
2018-05-15T18:01:06.103Z,98845.00
2018-05-15T18:03:39.658Z,98839.27
2018-05-15T18:06:13.381Z,98842.42
2018-05-15T18:08:46.950Z,98839.87
2018-05-15T18:11:20.478Z,98838.36
2018-05-15T18:13:54.045Z,98836.28
2018-05-15T18:16:27.836Z,98839.64
2018-05-15T18:19:01.510Z,98831.86
2018-05-15T18:21:35.080Z,98838.57
2018-05-15T18:24:08.934Z,98836.38
2018-05-15T18:26:42.409Z,98840.34
2018-05-15T18:29:15.881Z,98837.19
2018-05-15T18:31:49.443Z,98839.62
2018-05-15T18:34:23.013Z,98835.32
2018-05-15T18:36:56.592Z,98843.20
2018-05-15T18:39:30.105Z,98840.05
2018-05-15T18:42:03.851Z,98845.48
2018-05-15T18:44:37.503Z,98841.81
2018-05-15T18:47:11.156Z,98843.77
2018-05-15T18:49:44.949Z,98838.91
2018-05-15T18:52:18.635Z,98840.67
2018-05-15T18:54:52.234Z,98843.13
2018-05-15T18:57:25.850Z,98854.14
2018-05-15T18:59:59.676Z,98851.64
2018-05-15T19:02:33.391Z,98853.67
2018-05-15T19:05:07.027Z,98854.30
2018-05-15T19:07:40.742Z,98857.34
2018-05-15T19:10:14.272Z,98858.23
2018-05-15T19:12:47.988Z,98861.23
2018-05-15T19:15:21.649Z,98861.01
2018-05-15T19:17:55.396Z,98863.43
2018-05-15T19:20:29.213Z,98864.97
2018-05-15T19:23:02.820Z,98863.81
2018-05-15T19:25:36.376Z,98871.81
2018-05-15T19:28:09.907Z,98868.88
2018-05-15T19:30:43.636Z,98864.39
2018-05-15T19:33:17.236Z,98868.70
2018-05-15T19:35:50.964Z,98872.03
2018-05-15T19:38:24.526Z,98874.16
2018-05-15T19:40:58.305Z,98873.18
2018-05-15T19:43:32.107Z,98869.08
2018-05-15T19:46:05.900Z,98877.44
2018-05-15T19:48:39.428Z,98875.77
2018-05-15T19:51:12.971Z,98875.58
2018-05-15T19:53:46.715Z,98875.33
2018-05-15T19:56:20.312Z,98875.47
2018-05-15T19:58:53.920Z,98873.72
2018-05-15T20:01:27.511Z,98868.28
2018-05-15T20:04:01.115Z,98876.03
2018-05-15T20:06:34.712Z,98872.89
2018-05-15T20:09:08.512Z,98875.20
2018-05-15T20:11:42.168Z,98875.81
2018-05-15T20:14:15.745Z,98878.16
2018-05-15T20:16:49.305Z,98878.77
2018-05-15T20:19:22.940Z,98874.13
2018-05-15T20:21:56.704Z,98877.00
2018-05-15T20:24:30.304Z,98877.59
2018-05-15T20:27:03.884Z,98873.89
2018-05-15T20:29:37.425Z,98876.01
2018-05-15T20:32:11.202Z,98872.08
2018-05-15T20:34:44.961Z,98872.61
2018-05-15T20:37:18.689Z,98875.77
2018-05-15T20:39:52.329Z,98875.05
2018-05-15T20:42:25.984Z,98879.00
2018-05-15T20:44:59.594Z,98867.77
2018-05-15T20:47:33.168Z,98871.88
2018-05-15T20:50:06.719Z,98872.02
2018-05-15T20:52:40.418Z,98875.23
2018-05-15T20:55:14.105Z,98878.08
2018-05-15T20:57:47.950Z,98877.28
2018-05-15T21:00:21.588Z,98876.17
2018-05-15T21:02:55.289Z,98872.11
2018-05-15T21:05:28.887Z,98874.44
2018-05-15T21:08:02.481Z,98868.81
2018-05-15T21:10:36.211Z,98868.24
2018-05-15T21:13:09.843Z,98867.94
2018-05-15T21:15:43.644Z,98865.20
2018-05-15T21:18:17.313Z,98862.10
2018-05-15T21:20:50.922Z,98865.41
2018-05-15T21:23:24.593Z,98865.16
2018-05-15T21:25:58.294Z,98860.45
2018-05-15T21:28:32.017Z,98855.89
2018-05-15T21:31:05.683Z,98856.73
2018-05-15T21:33:39.682Z,98855.19
2018-05-15T21:36:13.493Z,98853.85
2018-05-15T21:38:47.250Z,98853.05
2018-05-15T21:41:20.967Z,98849.25
2018-05-15T21:43:54.769Z,98853.15
2018-05-15T21:46:28.537Z,98849.75
2018-05-15T21:49:02.517Z,98845.38
2018-05-15T21:51:36.157Z,98844.62
2018-05-15T21:54:09.865Z,98845.50
2018-05-15T21:56:43.640Z,98844.44
2018-05-15T21:59:17.420Z,98844.75
2018-05-15T22:01:51.030Z,98842.66
2018-05-15T22:04:24.781Z,98837.05
2018-05-15T22:06:58.519Z,98841.52
2018-05-15T22:09:32.220Z,98837.31
2018-05-15T22:12:17.900Z,98834.88
2018-05-15T22:15:03.456Z,98834.80
2018-05-15T22:17:49.101Z,98836.52
2018-05-15T22:20:34.675Z,98833.95
2018-05-15T22:23:07.733Z,98835.45
2018-05-15T22:25:41.473Z,98831.22
2018-05-15T22:28:15.155Z,98827.27
2018-05-15T22:30:48.896Z,98831.29
2018-05-15T22:33:22.617Z,98828.23
2018-05-15T22:35:56.301Z,98822.00
2018-05-15T22:38:29.982Z,98820.09
2018-05-15T22:41:03.793Z,98816.78
2018-05-15T22:43:37.684Z,98813.11
2018-05-15T22:46:11.269Z,98814.17
2018-05-15T22:48:44.953Z,98813.51
2018-05-15T22:51:18.686Z,98809.22
2018-05-15T22:53:52.403Z,98810.59
2018-05-15T22:56:26.146Z,98809.00
2018-05-15T22:58:59.897Z,98810.69
2018-05-15T23:01:33.568Z,98804.04
2018-05-15T23:04:07.152Z,98801.75
2018-05-15T23:06:40.751Z,98809.97
2018-05-15T23:09:14.472Z,98803.34
2018-05-15T23:11:48.269Z,98807.89
2018-05-15T23:14:21.960Z,98805.55
2018-05-15T23:16:55.626Z,98795.38
2018-05-15T23:19:29.400Z,98796.76
2018-05-15T23:22:03.030Z,98793.87
2018-05-15T23:24:36.769Z,98796.44
2018-05-15T23:27:10.441Z,98793.52
2018-05-15T23:29:44.145Z,98791.30
2018-05-15T23:32:17.867Z,98793.34
2018-05-15T23:34:51.668Z,98791.80
2018-05-15T23:37:25.374Z,98788.73
2018-05-15T23:39:59.056Z,98781.44
2018-05-15T23:42:32.621Z,98782.15
2018-05-15T23:45:06.445Z,98784.31
2018-05-15T23:47:40.130Z,98781.88
2018-05-15T23:50:13.817Z,98786.22
2018-05-15T23:52:47.477Z,98782.86
2018-05-15T23:55:21.227Z,98781.44
2018-05-15T23:57:55.039Z,98778.65
